createdAt,value
2018-12-05T00:00:41.531Z,12.83
2018-12-05T00:03:09.013Z,15.20
2018-12-05T00:05:36.484Z,18.43
2018-12-05T00:08:03.948Z,16.37
2018-12-05T00:10:31.433Z,15.87
2018-12-05T00:12:58.912Z,11.50
2018-12-05T00:15:26.401Z,16.53
2018-12-05T00:17:54.599Z,14.87
2018-12-05T00:20:22.093Z,17.57
2018-12-05T00:22:49.548Z,16.90
2018-12-05T00:25:17.038Z,12.23
2018-12-05T00:27:44.496Z,16.43
2018-12-05T00:30:11.984Z,13.63
2018-12-05T00:32:39.460Z,22.13
2018-12-05T00:35:07.016Z,16.03
2018-12-05T00:37:34.487Z,14.77
2018-12-05T00:40:02.063Z,14.57
2018-12-05T00:42:29.538Z,19.40
2018-12-05T00:44:57.016Z,13.93
2018-12-05T00:47:24.480Z,14.63
2018-12-05T00:49:51.948Z,15.90
2018-12-05T00:52:19.432Z,16.63
2018-12-05T00:54:46.915Z,17.63
2018-12-05T00:57:14.389Z,11.10
2018-12-05T00:59:41.853Z,15.70
2018-12-05T01:02:09.642Z,14.77
2018-12-05T01:04:37.205Z,15.43
2018-12-05T01:07:04.703Z,14.13
2018-12-05T01:09:32.186Z,15.37
2018-12-05T01:11:59.709Z,16.13
2018-12-05T01:14:27.177Z,19.23
2018-12-05T01:16:54.669Z,15.07
2018-12-05T01:19:22.127Z,10.50
2018-12-05T01:21:49.616Z,13.53
2018-12-05T01:24:17.096Z,11.30
2018-12-05T01:26:44.571Z,10.87
2018-12-05T01:29:12.035Z,15.50
2018-12-05T01:31:39.542Z,13.97
2018-12-05T01:34:07.012Z,13.28
2018-12-05T01:36:34.483Z,10.77
2018-12-05T01:39:01.958Z,14.63
2018-12-05T01:41:29.444Z,11.07
2018-12-05T01:43:57.008Z,11.43
2018-12-05T01:46:24.501Z,14.33
2018-12-05T01:48:51.981Z,11.20
2018-12-05T01:51:19.476Z,12.40
2018-12-05T01:53:47.019Z,12.63
2018-12-05T01:56:14.483Z,14.27
2018-12-05T01:58:41.988Z,13.50
2018-12-05T02:01:09.453Z,14.97
2018-12-05T02:03:36.948Z,13.13
2018-12-05T02:06:04.402Z,12.40
2018-12-05T02:08:31.900Z,11.70
2018-12-05T02:10:59.359Z,12.90
2018-12-05T02:13:26.848Z,17.93
2018-12-05T02:15:54.340Z,13.28
2018-12-05T02:18:21.827Z,17.60
2018-12-05T02:20:49.288Z,15.83
2018-12-05T02:23:16.771Z,13.43
2018-12-05T02:25:44.241Z,14.80
2018-12-05T02:28:11.723Z,15.27
2018-12-05T02:30:39.270Z,18.30
2018-12-05T02:33:06.847Z,13.57
2018-12-05T02:35:34.440Z,17.10
2018-12-05T02:38:01.924Z,17.67
2018-12-05T02:40:29.382Z,12.77
2018-12-05T02:42:56.948Z,13.53
2018-12-05T02:45:24.420Z,18.57
2018-12-05T02:47:51.895Z,15.93
2018-12-05T02:50:19.352Z,13.57
2018-12-05T02:52:46.854Z,14.50
2018-12-05T02:55:14.326Z,10.93
2018-12-05T02:57:41.800Z,12.30
2018-12-05T03:00:09.340Z,10.70
2018-12-05T03:02:36.815Z,10.07
2018-12-05T03:05:04.933Z,9.63
2018-12-05T03:07:32.421Z,11.03
2018-12-05T03:09:59.886Z,10.10
2018-12-05T03:12:27.363Z,10.87
2018-12-05T03:14:54.845Z,11.63
2018-12-05T03:17:22.327Z,10.57
2018-12-05T03:19:49.795Z,10.93
2018-12-05T03:22:17.278Z,12.07
2018-12-05T03:24:44.744Z,10.37
2018-12-05T03:27:12.220Z,9.27
2018-12-05T03:29:39.692Z,15.03
2018-12-05T03:32:07.249Z,7.23
2018-12-05T03:34:34.713Z,12.47
2018-12-05T03:37:02.189Z,10.27
2018-12-05T03:39:29.660Z,13.10
2018-12-05T03:41:57.139Z,10.83
2018-12-05T03:44:24.689Z,9.03
2018-12-05T03:46:52.159Z,7.87
2018-12-05T03:49:19.647Z,8.63
2018-12-05T03:51:47.128Z,12.13
2018-12-05T03:57:10.396Z,12.23
2018-12-05T03:59:37.885Z,9.65
2018-12-05T04:02:05.445Z,9.10
2018-12-05T04:04:32.939Z,11.57
2018-12-05T04:07:00.425Z,10.68
2018-12-05T04:09:27.908Z,11.40
2018-12-05T04:11:55.414Z,10.50
2018-12-05T04:14:22.896Z,17.27
2018-12-05T04:16:50.396Z,12.45
2018-12-05T04:19:17.863Z,9.53
2018-12-05T04:21:45.351Z,12.87
2018-12-05T04:24:12.846Z,14.80
2018-12-05T04:26:40.333Z,13.73
2018-12-05T04:29:08.058Z,10.97
2018-12-05T04:31:35.920Z,9.50
2018-12-05T04:34:03.700Z,18.15
2018-12-05T04:36:31.246Z,11.05
2018-12-05T04:38:58.723Z,10.63
2018-12-05T04:41:26.228Z,12.00
2018-12-05T04:43:53.705Z,9.75
2018-12-05T04:46:21.182Z,14.47
2018-12-05T04:48:48.674Z,8.57
2018-12-05T04:51:16.237Z,9.77
2018-12-05T04:53:43.740Z,11.60
2018-12-05T04:56:11.209Z,10.30
2018-12-05T04:58:38.701Z,13.50
2018-12-05T05:01:06.463Z,9.53
2018-12-05T05:03:33.988Z,13.67
2018-12-05T05:06:01.464Z,10.27
2018-12-05T05:08:28.957Z,10.70
2018-12-05T05:10:56.428Z,11.93
2018-12-05T05:13:23.913Z,14.23
2018-12-05T05:15:51.389Z,12.60
2018-12-05T05:18:18.893Z,10.87
2018-12-05T05:20:46.385Z,11.83
2018-12-05T05:23:13.886Z,15.47
2018-12-05T05:25:41.379Z,13.27
2018-12-05T05:28:08.914Z,11.43
2018-12-05T05:30:36.441Z,15.10
2018-12-05T05:33:03.946Z,12.07
2018-12-05T05:35:32.209Z,17.70
2018-12-05T05:37:59.912Z,13.70
2018-12-05T05:40:27.771Z,14.93
2018-12-05T05:42:55.463Z,11.70
2018-12-05T05:45:23.089Z,11.30
2018-12-05T05:47:50.609Z,13.00
2018-12-05T05:50:20.639Z,20.70
2018-12-05T05:52:48.509Z,10.03
2018-12-05T05:55:16.938Z,10.37
2018-12-05T05:57:44.544Z,11.97
2018-12-05T06:00:12.280Z,11.77
2018-12-05T06:02:40.718Z,18.97
2018-12-05T06:05:09.264Z,10.00
2018-12-05T06:07:36.769Z,13.50
2018-12-05T06:10:05.497Z,8.43
2018-12-05T06:12:32.963Z,10.93
2018-12-05T06:15:00.451Z,11.67
2018-12-05T06:17:27.940Z,12.27
2018-12-05T06:19:55.415Z,9.83
2018-12-05T06:22:22.905Z,11.77
2018-12-05T06:24:50.443Z,11.47
2018-12-05T06:27:18.133Z,11.83
2018-12-05T06:29:45.780Z,12.40
2018-12-05T06:32:13.321Z,16.13
2018-12-05T06:34:40.783Z,14.33
2018-12-05T06:37:08.280Z,10.17
2018-12-05T06:39:35.744Z,12.37
2018-12-05T06:42:03.233Z,10.63
2018-12-05T06:44:30.699Z,12.00
2018-12-05T06:46:58.516Z,14.30
2018-12-05T06:49:26.005Z,15.37
2018-12-05T06:51:53.516Z,11.57
2018-12-05T06:54:21.068Z,13.77
2018-12-05T06:56:48.595Z,12.80
2018-12-05T06:59:16.082Z,11.10
2018-12-05T07:01:43.553Z,13.00
2018-12-05T07:04:11.064Z,15.07
2018-12-05T07:06:38.527Z,14.40
2018-12-05T07:09:07.577Z,9.20
2018-12-05T07:11:35.069Z,9.17
2018-12-05T07:14:02.817Z,12.43
2018-12-05T07:16:30.341Z,15.47
2018-12-05T07:18:57.813Z,13.43
2018-12-05T07:21:25.297Z,12.93
2018-12-05T07:23:52.765Z,13.97
2018-12-05T07:26:20.262Z,14.97
2018-12-05T07:28:47.855Z,14.60
2018-12-05T07:31:15.344Z,15.30
2018-12-05T07:33:42.808Z,15.87
2018-12-05T07:36:10.411Z,19.53
2018-12-05T07:38:37.881Z,14.63
2018-12-05T07:41:05.353Z,11.87
2018-12-05T07:43:32.845Z,13.50
2018-12-05T07:46:00.313Z,14.97
2018-12-05T07:48:27.809Z,13.97
2018-12-05T07:50:55.273Z,12.40
2018-12-05T07:53:22.752Z,14.90
2018-12-05T07:55:50.224Z,14.57
2018-12-05T07:58:17.722Z,17.10
2018-12-05T08:00:45.197Z,18.03
2018-12-05T08:03:12.682Z,14.50
2018-12-05T08:05:40.176Z,11.73
2018-12-05T08:08:07.681Z,29.67
2018-12-05T08:10:35.153Z,17.30
2018-12-05T08:13:02.623Z,22.27
2018-12-05T08:15:30.112Z,17.07
2018-12-05T08:17:57.574Z,17.57
2018-12-05T08:20:25.059Z,32.87
2018-12-05T08:22:52.519Z,16.67
2018-12-05T08:25:20.000Z,19.07
2018-12-05T08:27:47.476Z,21.47
2018-12-05T08:30:14.965Z,24.53
2018-12-05T08:32:42.437Z,21.67
2018-12-05T08:35:09.925Z,17.07
2018-12-05T08:37:37.475Z,20.47
2018-12-05T08:40:05.457Z,26.87
2018-12-05T08:42:32.932Z,18.67
2018-12-05T08:45:00.418Z,18.17
2018-12-05T08:47:33.654Z,19.37
2018-12-05T08:49:57.403Z,13.97
2018-12-05T08:52:24.909Z,19.70
2018-12-05T08:54:52.813Z,18.13
2018-12-05T08:57:20.446Z,17.90
2018-12-05T08:59:48.031Z,15.67
2018-12-05T09:02:15.536Z,16.33
2018-12-05T09:04:43.001Z,17.77
2018-12-05T09:07:10.482Z,19.13
2018-12-05T09:09:37.966Z,19.63
2018-12-05T09:12:05.448Z,15.67
2018-12-05T09:14:33.017Z,15.13
2018-12-05T09:17:00.512Z,15.70
2018-12-05T09:19:27.968Z,11.80
2018-12-05T09:21:55.436Z,14.50
2018-12-05T09:24:22.933Z,18.70
2018-12-05T09:26:50.408Z,13.83
2018-12-05T09:29:17.892Z,13.80
2018-12-05T09:31:45.361Z,16.00
2018-12-05T09:34:12.850Z,16.73
2018-12-05T09:36:40.321Z,22.57
2018-12-05T09:39:07.893Z,13.90
2018-12-05T09:41:35.361Z,15.70
2018-12-05T09:44:02.844Z,21.27
2018-12-05T09:46:30.299Z,14.30
2018-12-05T09:48:57.788Z,16.57
2018-12-05T09:51:25.271Z,18.87
2018-12-05T09:53:52.758Z,18.50
2018-12-05T09:56:20.290Z,13.73
2018-12-05T09:58:47.791Z,16.80
2018-12-05T10:01:15.267Z,16.20
2018-12-05T10:03:43.487Z,12.20
2018-12-05T10:06:10.982Z,15.53
2018-12-05T10:08:38.548Z,14.07
2018-12-05T10:11:06.040Z,18.30
2018-12-05T10:13:33.636Z,16.33
2018-12-05T10:16:01.116Z,15.07
2018-12-05T10:18:28.586Z,17.53
2018-12-05T10:20:56.264Z,16.70
2018-12-05T10:23:23.871Z,15.00
2018-12-05T10:25:51.352Z,14.20
2018-12-05T10:28:18.821Z,13.53
2018-12-05T10:30:46.336Z,21.93
2018-12-05T10:33:13.807Z,13.33
2018-12-05T10:35:41.264Z,17.10
2018-12-05T10:38:08.756Z,17.20
2018-12-05T10:40:36.269Z,14.70
2018-12-05T10:43:03.783Z,14.60
2018-12-05T10:45:31.337Z,14.27
2018-12-05T10:47:58.814Z,15.33
2018-12-05T10:50:26.760Z,13.27
2018-12-05T10:52:54.256Z,20.47
2018-12-05T10:55:21.729Z,19.43
2018-12-05T10:57:49.272Z,19.07
2018-12-05T11:00:22.574Z,11.77
2018-12-05T11:02:56.131Z,25.83
2018-12-05T11:05:26.529Z,21.93
2018-12-05T11:07:59.548Z,19.80
2018-12-05T11:10:32.869Z,14.43
2018-12-05T11:13:06.080Z,21.23
2018-12-05T11:15:39.420Z,23.87
2018-12-05T11:18:12.703Z,22.93
2018-12-05T11:20:45.784Z,17.73
2018-12-05T11:26:27.660Z,15.97
2018-12-05T11:28:55.156Z,15.00
2018-12-05T11:31:22.635Z,17.67
2018-12-05T11:33:50.114Z,20.13
2018-12-05T11:36:17.608Z,19.87
2018-12-05T11:38:45.072Z,12.70
2018-12-05T11:41:12.626Z,18.67
2018-12-05T11:43:40.092Z,14.27
2018-12-05T11:46:07.608Z,15.83
2018-12-05T11:48:35.595Z,15.43
2018-12-05T11:51:03.108Z,15.40
2018-12-05T11:53:30.590Z,15.10
2018-12-05T11:55:58.158Z,16.97
2018-12-05T11:58:25.635Z,17.77
2018-12-05T12:00:53.202Z,14.43
2018-12-05T12:03:20.684Z,17.10
2018-12-05T12:05:48.175Z,17.57
2018-12-05T12:08:15.663Z,15.30
2018-12-05T12:10:43.176Z,14.43
2018-12-05T12:13:10.660Z,10.57
2018-12-05T12:15:38.208Z,11.30
2018-12-05T12:18:05.793Z,12.40
2018-12-05T12:20:33.266Z,9.77
2018-12-05T12:23:00.744Z,7.40
2018-12-05T12:25:28.320Z,9.60
2018-12-05T12:27:55.822Z,8.97
2018-12-05T12:30:23.332Z,9.90
2018-12-05T12:32:50.819Z,9.20
2018-12-05T12:35:18.306Z,9.83
2018-12-05T12:37:45.799Z,10.13
2018-12-05T12:40:13.290Z,10.67
2018-12-05T12:42:40.772Z,10.57
2018-12-05T12:45:08.411Z,9.03
2018-12-05T12:47:35.887Z,9.17
2018-12-05T12:50:04.407Z,11.70
2018-12-05T12:52:31.971Z,9.47
2018-12-05T12:54:59.428Z,10.27
2018-12-05T12:57:26.981Z,12.37
2018-12-05T12:59:54.447Z,15.80
2018-12-05T13:02:23.610Z,15.17
2018-12-05T13:04:51.412Z,13.20
2018-12-05T13:07:18.891Z,14.77
2018-12-05T13:09:46.464Z,14.00
2018-12-05T13:12:15.903Z,14.97
2018-12-05T13:14:43.400Z,14.03
2018-12-05T13:17:10.879Z,13.83
2018-12-05T13:19:38.356Z,11.83
2018-12-05T13:22:05.825Z,12.20
2018-12-05T13:24:33.304Z,15.47
2018-12-05T13:27:00.771Z,16.27
2018-12-05T13:29:28.351Z,12.83
2018-12-05T13:31:55.819Z,12.33
2018-12-05T13:34:23.307Z,13.37
2018-12-05T13:36:50.764Z,10.83
2018-12-05T13:39:18.264Z,10.30
2018-12-05T13:41:45.733Z,12.23
2018-12-05T13:44:13.291Z,11.93
2018-12-05T13:46:40.756Z,12.57
2018-12-05T13:49:08.215Z,13.23
2018-12-05T13:51:35.715Z,12.20
2018-12-05T13:54:03.337Z,10.90
2018-12-05T13:56:30.820Z,12.23
2018-12-05T13:58:58.275Z,10.03
2018-12-05T14:01:25.751Z,9.50
2018-12-05T14:03:53.216Z,11.00
2018-12-05T14:06:20.695Z,11.17
2018-12-05T14:08:48.256Z,8.70
2018-12-05T14:11:15.728Z,10.90
2018-12-05T14:13:43.184Z,8.90
2018-12-05T14:16:10.665Z,9.70
2018-12-05T14:18:38.124Z,11.17
2018-12-05T14:21:05.600Z,11.50
2018-12-05T14:23:33.060Z,9.67
2018-12-05T14:26:00.540Z,8.53
2018-12-05T14:28:28.000Z,10.20
2018-12-05T14:30:55.455Z,9.53
2018-12-05T14:33:22.928Z,10.73
2018-12-05T14:35:50.392Z,8.70
2018-12-05T14:38:17.872Z,10.50
2018-12-05T14:40:45.324Z,8.17
2018-12-05T14:43:12.804Z,11.57
2018-12-05T14:45:40.291Z,13.90
2018-12-05T14:48:07.787Z,9.03
2018-12-05T14:50:35.355Z,11.30
2018-12-05T14:53:03.044Z,13.20
2018-12-05T14:55:30.501Z,13.90
2018-12-05T14:57:57.980Z,12.13
2018-12-05T15:00:25.453Z,16.00
2018-12-05T15:02:52.931Z,15.23
2018-12-05T15:05:20.402Z,14.47
2018-12-05T15:07:47.937Z,17.23
2018-12-05T15:10:15.423Z,13.37
2018-12-05T15:12:44.860Z,14.27
2018-12-05T15:15:12.388Z,12.90
2018-12-05T15:17:39.880Z,13.27
2018-12-05T15:20:07.521Z,10.70
2018-12-05T15:22:34.980Z,10.90
2018-12-05T15:25:02.464Z,13.40
2018-12-05T15:27:29.934Z,9.57
2018-12-05T15:29:57.393Z,10.83
2018-12-05T15:32:24.872Z,10.40
2018-12-05T15:34:52.403Z,8.67
2018-12-05T15:37:19.893Z,10.33
2018-12-05T15:39:47.351Z,13.13
2018-12-05T15:42:14.838Z,8.97
2018-12-05T15:44:42.295Z,12.00
2018-12-05T15:47:09.764Z,12.87
2018-12-05T15:49:37.226Z,9.13
2018-12-05T15:52:04.708Z,9.60
2018-12-05T15:54:32.172Z,11.20
2018-12-05T15:56:59.656Z,11.10
2018-12-05T15:59:27.170Z,8.43
2018-12-05T16:01:54.770Z,11.70
2018-12-05T16:04:22.240Z,10.73
2018-12-05T16:06:49.701Z,9.13
2018-12-05T16:09:17.189Z,9.13
2018-12-05T16:11:44.655Z,8.97
2018-12-05T16:14:12.127Z,8.23
2018-12-05T16:16:39.582Z,9.13
2018-12-05T16:19:07.135Z,6.97
2018-12-05T16:21:34.685Z,7.40
2018-12-05T16:24:02.178Z,8.30
2018-12-05T16:26:29.637Z,9.97
2018-12-05T16:28:57.112Z,10.47
2018-12-05T16:31:24.576Z,8.47
2018-12-05T16:33:52.055Z,9.13
2018-12-05T16:36:19.663Z,9.70
2018-12-05T16:38:47.157Z,10.27
2018-12-05T16:41:14.638Z,8.87
2018-12-05T16:43:42.200Z,11.67
2018-12-05T16:46:09.796Z,10.80
2018-12-05T16:48:37.280Z,7.33
2018-12-05T16:51:04.745Z,9.40
2018-12-05T16:53:32.225Z,9.70
2018-12-05T16:55:59.712Z,9.33
2018-12-05T16:58:27.189Z,11.53
2018-12-05T17:00:54.652Z,9.23
2018-12-05T17:03:22.125Z,7.67
2018-12-05T17:05:49.595Z,10.87
2018-12-05T17:08:17.068Z,12.50
2018-12-05T17:10:44.553Z,8.80
2018-12-05T17:13:13.692Z,11.53
2018-12-05T17:15:41.248Z,8.67
2018-12-05T17:18:08.783Z,7.57
2018-12-05T17:20:36.256Z,9.67
2018-12-05T17:23:03.795Z,9.37
2018-12-05T17:25:31.276Z,10.77
2018-12-05T17:27:58.752Z,10.47
2018-12-05T17:30:26.329Z,11.57
2018-12-05T17:32:53.805Z,10.37
2018-12-05T17:35:21.255Z,8.90
2018-12-05T17:37:48.734Z,8.60
2018-12-05T17:40:16.192Z,9.07
2018-12-05T17:42:43.676Z,11.93
2018-12-05T17:45:11.144Z,10.00
2018-12-05T17:47:38.712Z,10.53
2018-12-05T17:50:06.329Z,11.87
2018-12-05T17:52:33.819Z,10.47
2018-12-05T17:55:01.288Z,12.47
2018-12-05T17:57:28.758Z,9.63
2018-12-05T17:59:56.221Z,11.43
2018-12-05T18:02:23.700Z,11.23
2018-12-05T18:04:51.727Z,8.03
2018-12-05T18:07:19.325Z,11.73
2018-12-05T18:09:46.789Z,9.03
2018-12-05T18:12:14.271Z,11.17
2018-12-05T18:14:41.754Z,10.90
2018-12-05T18:17:09.242Z,9.27
2018-12-05T18:19:36.709Z,10.60
2018-12-05T18:22:04.221Z,9.87
2018-12-05T18:24:31.703Z,13.70
2018-12-05T18:26:59.198Z,11.27
2018-12-05T18:29:26.662Z,11.50
2018-12-05T18:31:54.132Z,9.47
2018-12-05T18:34:21.603Z,9.97
2018-12-05T18:36:49.077Z,11.50
2018-12-05T18:39:16.617Z,12.47
2018-12-05T18:41:44.137Z,9.33
2018-12-05T18:44:11.617Z,11.67
2018-12-05T18:46:39.172Z,9.80
2018-12-05T18:49:06.657Z,12.30
2018-12-05T18:51:34.210Z,12.70
2018-12-05T18:54:01.698Z,11.30
2018-12-05T18:56:29.158Z,8.87
2018-12-05T18:58:56.640Z,13.27
2018-12-05T19:01:24.105Z,9.30
2018-12-05T19:03:51.600Z,11.00
2018-12-05T19:06:19.063Z,12.17
2018-12-05T19:08:46.544Z,11.13
2018-12-05T19:11:14.011Z,12.23
2018-12-05T19:13:47.220Z,15.23
2018-12-05T19:16:14.685Z,15.30
2018-12-05T19:18:42.152Z,12.60
2018-12-05T19:21:09.633Z,11.80
2018-12-05T19:23:37.163Z,13.83
2018-12-05T19:26:04.740Z,14.63
2018-12-05T19:28:32.208Z,16.67
2018-12-05T19:30:59.736Z,17.10
2018-12-05T19:33:27.239Z,21.93
2018-12-05T19:35:54.727Z,18.50
2018-12-05T19:38:22.184Z,15.03
2018-12-05T19:40:49.685Z,11.60
2018-12-05T19:43:17.157Z,12.37
2018-12-05T19:45:44.648Z,13.37
2018-12-05T19:48:12.113Z,14.50
2018-12-05T19:50:39.608Z,15.97
2018-12-05T19:53:07.153Z,15.70
2018-12-05T19:55:34.640Z,17.73
2018-12-05T19:58:02.100Z,15.57
2018-12-05T20:00:29.596Z,13.23
2018-12-05T20:02:57.077Z,12.63
2018-12-05T20:05:24.570Z,12.30
2018-12-05T20:07:52.032Z,13.93
2018-12-05T20:10:19.515Z,15.27
2018-12-05T20:12:47.005Z,10.90
2018-12-05T20:15:14.657Z,13.83
2018-12-05T20:17:42.128Z,10.03
2018-12-05T20:20:09.773Z,16.30
2018-12-05T20:22:37.245Z,10.93
2018-12-05T20:25:04.903Z,18.80
2018-12-05T20:27:32.369Z,18.07
2018-12-05T20:29:59.860Z,11.87
2018-12-05T20:32:27.329Z,17.27
2018-12-05T20:34:54.818Z,15.73
2018-12-05T20:37:22.293Z,15.33
2018-12-05T20:39:49.781Z,15.80
2018-12-05T20:42:17.264Z,19.00
2018-12-05T20:44:44.731Z,41.00
2018-12-05T20:47:12.215Z,31.37
2018-12-05T20:49:39.692Z,27.30
2018-12-05T20:52:07.178Z,20.67
2018-12-05T20:54:34.657Z,20.10
2018-12-05T20:57:02.225Z,20.50
2018-12-05T20:59:29.706Z,17.00
2018-12-05T21:01:57.212Z,12.57
2018-12-05T21:04:24.681Z,11.40
2018-12-05T21:06:52.240Z,10.50
2018-12-05T21:09:19.705Z,8.37
2018-12-05T21:11:47.189Z,8.30
2018-12-05T21:14:14.741Z,10.63
2018-12-05T21:16:42.204Z,11.10
2018-12-05T21:19:09.697Z,8.40
2018-12-05T21:21:37.160Z,9.37
2018-12-05T21:24:04.636Z,9.27
2018-12-05T21:26:32.099Z,8.27
2018-12-05T21:28:59.577Z,8.77
2018-12-05T21:31:27.046Z,8.23
2018-12-05T21:33:54.536Z,8.47
2018-12-05T21:36:21.991Z,7.40
2018-12-05T21:38:49.480Z,13.67
2018-12-05T21:41:16.949Z,8.13
2018-12-05T21:43:44.429Z,7.90
2018-12-05T21:46:11.896Z,9.57
2018-12-05T21:48:39.381Z,8.37
2018-12-05T21:51:06.849Z,8.83
2018-12-05T21:53:34.328Z,9.93
2018-12-05T21:56:01.789Z,8.17
2018-12-05T21:58:29.258Z,7.40
2018-12-05T22:00:56.741Z,7.17
2018-12-05T22:03:24.252Z,6.47
2018-12-05T22:05:51.725Z,7.50
2018-12-05T22:08:20.181Z,6.67
2018-12-05T22:10:47.890Z,5.77
2018-12-05T22:13:15.360Z,7.50
2018-12-05T22:15:42.835Z,5.50
2018-12-05T22:18:10.454Z,7.47
2018-12-05T22:20:37.974Z,5.93
2018-12-05T22:23:05.469Z,4.90
2018-12-05T22:25:32.952Z,5.80
2018-12-05T22:28:00.424Z,6.27
2018-12-05T22:30:27.903Z,6.27
2018-12-05T22:32:55.385Z,5.27
2018-12-05T22:35:22.863Z,4.93
2018-12-05T22:37:50.337Z,7.73
2018-12-05T22:40:17.826Z,5.47
2018-12-05T22:42:45.296Z,7.93
2018-12-05T22:45:12.852Z,4.97
2018-12-05T22:47:40.351Z,5.47
2018-12-05T22:50:07.914Z,5.73
2018-12-05T22:52:35.404Z,5.70
2018-12-05T22:55:03.032Z,4.57
2018-12-05T22:57:30.516Z,4.57
2018-12-05T22:59:58.020Z,4.93
2018-12-05T23:02:25.805Z,5.50
2018-12-05T23:04:53.278Z,3.43
2018-12-05T23:07:20.760Z,4.53
2018-12-05T23:09:48.239Z,5.50
2018-12-05T23:12:15.716Z,3.43
2018-12-05T23:14:43.201Z,3.97
2018-12-05T23:17:10.689Z,4.70
2018-12-05T23:19:38.143Z,3.47
2018-12-05T23:22:05.644Z,3.60
2018-12-05T23:24:33.114Z,4.40
2018-12-05T23:27:00.592Z,5.87
2018-12-05T23:29:28.118Z,4.80
2018-12-05T23:31:55.685Z,3.77
2018-12-05T23:34:24.907Z,5.30
2018-12-05T23:36:52.627Z,4.03
2018-12-05T23:39:20.121Z,4.27
2018-12-05T23:41:47.600Z,5.33
2018-12-05T23:44:15.078Z,6.17
2018-12-05T23:46:42.541Z,4.13
2018-12-05T23:49:10.029Z,6.00
2018-12-05T23:51:37.579Z,7.50
2018-12-05T23:54:05.062Z,7.90
2018-12-05T23:56:32.544Z,7.67
2018-12-05T23:59:00.030Z,9.10
